createdAt,value
2018-02-23T00:00:02.480Z,-0.21
2018-02-23T00:01:11.927Z,-0.19
2018-02-23T00:02:21.933Z,-0.21
2018-02-23T00:03:31.139Z,-0.17
2018-02-23T00:04:40.069Z,-0.26
2018-02-23T00:05:50.058Z,-0.21
2018-02-23T00:07:00.150Z,-0.21
2018-02-23T00:08:09.894Z,-0.21
2018-02-23T00:09:19.210Z,-0.27
2018-02-23T00:10:29.207Z,-0.27
2018-02-23T00:11:40.174Z,-0.24
2018-02-23T00:12:50.236Z,-0.23
2018-02-23T00:14:00.112Z,-0.23
2018-02-23T00:15:09.683Z,-0.31
2018-02-23T00:16:19.466Z,-0.24
2018-02-23T00:17:29.047Z,-0.24
2018-02-23T00:18:38.779Z,-0.23
2018-02-23T00:19:48.504Z,-0.24
2018-02-23T00:20:57.964Z,-0.26
2018-02-23T00:22:07.685Z,-0.32
2018-02-23T00:23:17.198Z,-0.23
2018-02-23T00:24:26.999Z,-0.24
2018-02-23T00:25:36.883Z,-0.3
2018-02-23T00:26:46.600Z,-0.41
2018-02-23T00:27:56.584Z,-0.35
2018-02-23T00:29:06.118Z,-0.34
2018-02-23T00:30:15.904Z,-0.32
2018-02-23T00:31:25.681Z,-0.37
2018-02-23T00:32:35.007Z,-0.35
2018-02-23T00:33:44.234Z,-0.32
2018-02-23T00:34:54.556Z,-0.31
2018-02-23T00:36:04.414Z,-0.32
2018-02-23T00:37:14.067Z,-0.37
2018-02-23T00:38:23.820Z,-0.38
2018-02-23T00:39:34.020Z,-0.42
2018-02-23T00:40:44.389Z,-0.38
2018-02-23T00:41:54.604Z,-0.41
2018-02-23T00:43:03.839Z,-0.38
2018-02-23T00:44:13.568Z,-0.45
2018-02-23T00:45:23.289Z,-0.37
2018-02-23T00:46:33.285Z,-0.38
2018-02-23T00:47:43.536Z,-0.38
2018-02-23T00:48:53.620Z,-0.49
2018-02-23T00:50:02.786Z,-0.5
2018-02-23T00:51:12.276Z,-0.47
2018-02-23T00:52:21.792Z,-0.47
2018-02-23T00:53:31.515Z,-0.44
2018-02-23T00:54:40.704Z,-0.53
2018-02-23T00:55:50.153Z,-0.53
2018-02-23T00:56:59.866Z,-0.56
2018-02-23T00:58:09.333Z,-0.56
2018-02-23T00:59:18.885Z,-0.53
2018-02-23T01:00:28.598Z,-0.55
2018-02-23T01:01:38.606Z,-0.55
2018-02-23T01:02:48.054Z,-0.53
2018-02-23T01:03:57.512Z,-0.58
2018-02-23T01:05:07.026Z,-0.6
2018-02-23T01:06:16.806Z,-0.59
2018-02-23T01:07:26.519Z,-0.59
2018-02-23T01:08:36.314Z,-0.56
2018-02-23T01:09:46.322Z,-0.62
2018-02-23T01:10:56.039Z,-0.63
2018-02-23T01:12:05.765Z,-0.5
2018-02-23T01:13:15.218Z,-0.65
2018-02-23T01:14:24.684Z,-0.56
2018-02-23T01:15:34.673Z,-0.6
2018-02-23T01:16:44.184Z,-0.63
2018-02-23T01:17:53.910Z,-0.62
2018-02-23T01:19:03.952Z,-0.62
2018-02-23T01:20:13.168Z,-0.56
2018-02-23T01:21:22.620Z,-0.5
2018-02-23T01:22:32.331Z,-0.59
2018-02-23T01:23:41.783Z,-0.63
2018-02-23T01:24:51.498Z,-0.63
2018-02-23T01:26:00.414Z,-0.62
2018-02-23T01:27:09.874Z,-0.7
2018-02-23T01:28:19.596Z,-0.59
2018-02-23T01:29:29.316Z,-0.63
2018-02-23T01:30:38.774Z,-0.63
2018-02-23T01:31:48.766Z,-0.65
2018-02-23T01:32:58.749Z,-0.67
2018-02-23T01:34:08.728Z,-0.62
2018-02-23T01:35:18.439Z,-0.62
2018-02-23T01:36:28.286Z,-0.67
2018-02-23T01:37:38.270Z,-0.62
2018-02-23T01:38:47.725Z,-0.62
2018-02-23T01:39:57.451Z,-0.6
2018-02-23T01:41:06.906Z,-0.6
2018-02-23T01:42:16.356Z,-0.68
2018-02-23T01:43:25.547Z,-0.74
2018-02-23T01:44:35.261Z,-0.71
2018-02-23T01:45:45.307Z,-0.6
2018-02-23T01:46:55.315Z,-0.65
2018-02-23T01:48:04.793Z,-0.73
2018-02-23T01:49:14.230Z,-0.68
2018-02-23T01:50:23.674Z,-0.7
2018-02-23T01:51:33.656Z,-0.7
2018-02-23T01:52:43.644Z,-0.73
2018-02-23T01:53:53.622Z,-0.67
2018-02-23T01:55:03.071Z,-0.63
2018-02-23T01:56:12.518Z,-0.7
2018-02-23T01:57:22.025Z,-0.67
2018-02-23T01:58:32.011Z,-0.73
2018-02-23T01:59:41.728Z,-0.74
2018-02-23T02:00:51.705Z,-0.73
2018-02-23T02:02:01.437Z,-0.73
2018-02-23T02:03:10.700Z,-0.83
2018-02-23T02:04:20.683Z,-0.83
2018-02-23T02:05:30.403Z,-0.74
2018-02-23T02:06:40.399Z,-0.83
2018-02-23T02:07:49.609Z,-0.78
2018-02-23T02:08:59.598Z,-0.85
2018-02-23T02:10:09.319Z,-0.77
2018-02-23T02:11:19.299Z,-0.83
2018-02-23T02:12:29.029Z,-0.74
2018-02-23T02:13:38.744Z,-0.83
2018-02-23T02:14:48.456Z,-0.77
2018-02-23T02:15:57.913Z,-0.78
2018-02-23T02:17:07.361Z,-0.83
2018-02-23T02:18:17.093Z,-0.86
2018-02-23T02:19:27.084Z,-0.86
2018-02-23T02:20:37.075Z,-0.89
2018-02-23T02:21:46.801Z,-0.89
2018-02-23T02:22:56.778Z,-0.92
2018-02-23T02:24:06.759Z,-0.92
2018-02-23T02:25:16.742Z,-0.95
2018-02-23T02:26:26.749Z,-0.89
2018-02-23T02:27:36.477Z,-0.92
2018-02-23T02:28:45.937Z,-0.95
2018-02-23T02:29:55.398Z,-0.95
2018-02-23T02:31:05.114Z,-0.93
2018-02-23T02:32:14.831Z,-0.96
2018-02-23T02:33:24.827Z,-0.93
2018-02-23T02:34:34.278Z,-0.93
2018-02-23T02:35:44.010Z,-0.86
2018-02-23T02:36:54.023Z,-0.95
2018-02-23T02:38:04.045Z,-0.92
2018-02-23T02:39:13.236Z,-0.92
2018-02-23T02:40:22.690Z,-0.93
2018-02-23T02:41:32.678Z,-0.9
2018-02-23T02:42:42.410Z,-0.89
2018-02-23T02:43:51.872Z,-0.93
2018-02-23T02:45:01.869Z,-0.89
2018-02-23T02:46:11.653Z,-0.92
2018-02-23T02:47:21.660Z,-0.93
2018-02-23T02:48:31.512Z,-0.95
2018-02-23T02:49:41.263Z,-0.95
2018-02-23T02:50:51.259Z,-0.96
2018-02-23T02:52:00.712Z,-0.9
2018-02-23T02:53:10.172Z,-0.96
2018-02-23T02:54:19.925Z,-0.97
2018-02-23T02:55:29.939Z,-0.9
2018-02-23T02:56:39.392Z,-0.93
2018-02-23T02:57:49.381Z,-0.92
2018-02-23T02:58:59.156Z,-0.89
2018-02-23T03:00:08.884Z,-0.85
2018-02-23T03:01:18.894Z,-0.86
2018-02-23T03:02:28.666Z,-0.9
2018-02-23T03:03:38.677Z,-0.92
2018-02-23T03:04:48.142Z,-0.95
2018-02-23T03:05:57.885Z,-0.96
2018-02-23T03:07:07.605Z,-0.95
2018-02-23T03:08:17.333Z,-0.92
2018-02-23T03:09:26.789Z,-0.86
2018-02-23T03:10:36.769Z,-0.95
2018-02-23T03:11:46.753Z,-0.99
2018-02-23T03:12:56.402Z,-0.96
2018-02-23T03:14:05.853Z,-0.97
2018-02-23T03:15:15.633Z,-1.07
2018-02-23T03:16:25.689Z,-0.92
2018-02-23T03:17:35.417Z,-0.96
2018-02-23T03:18:45.155Z,-0.97
2018-02-23T03:19:54.886Z,-0.96
2018-02-23T03:21:04.899Z,-1.03
2018-02-23T03:22:14.637Z,-0.99
2018-02-23T03:23:24.364Z,-1.07
2018-02-23T03:24:34.383Z,-1.1
2018-02-23T03:25:44.105Z,-1
2018-02-23T03:26:54.221Z,-1.1
2018-02-23T03:28:04.212Z,-1.08
2018-02-23T03:29:13.974Z,-1.11
2018-02-23T03:30:23.458Z,-1.17
2018-02-23T03:31:33.230Z,-1.13
2018-02-23T03:32:43.236Z,-1.15
2018-02-23T03:33:52.965Z,-1.07
2018-02-23T03:35:02.686Z,-1.17
2018-02-23T03:36:12.167Z,-1.05
2018-02-23T03:37:21.897Z,-1.11
2018-02-23T03:38:31.349Z,-1.03
2018-02-23T03:39:40.821Z,-1.1
2018-02-23T03:40:50.555Z,-1.07
2018-02-23T03:42:00.553Z,-1.08
2018-02-23T03:43:10.273Z,-1.1
2018-02-23T03:44:19.993Z,-1.1
2018-02-23T03:45:29.981Z,-1.1
2018-02-23T03:46:39.178Z,-1.1
2018-02-23T03:47:49.178Z,-0.99
2018-02-23T03:48:59.175Z,-0.97
2018-02-23T03:50:09.161Z,-1.07
2018-02-23T03:51:19.151Z,-1.05
2018-02-23T03:52:28.867Z,-1.13
2018-02-23T03:53:38.321Z,-1.11
2018-02-23T03:54:47.513Z,-1.1
2018-02-23T03:55:56.964Z,-1.13
2018-02-23T03:57:06.966Z,-1.1
2018-02-23T03:58:16.679Z,-1.03
2018-02-23T03:59:26.398Z,-1.07
2018-02-23T04:00:36.113Z,-1.1
2018-02-23T04:01:45.833Z,-1.1
2018-02-23T04:02:55.823Z,-1.11
2018-02-23T04:04:05.548Z,-1.14
2018-02-23T04:05:15.579Z,-1.11
2018-02-23T04:06:25.439Z,-1.13
2018-02-23T04:07:34.892Z,-1.1
2018-02-23T04:08:44.091Z,-1.17
2018-02-23T04:09:54.083Z,-1.29
2018-02-23T04:11:03.550Z,-1.21
2018-02-23T04:12:13.293Z,-1.15
2018-02-23T04:13:22.758Z,-1.15
2018-02-23T04:14:32.518Z,-1.26
2018-02-23T04:15:42.259Z,-1.28
2018-02-23T04:16:51.712Z,-1.26
2018-02-23T04:18:01.162Z,-1.23
2018-02-23T04:19:10.616Z,-1.2
2018-02-23T04:20:20.599Z,-1.25
2018-02-23T04:21:30.319Z,-1.31
2018-02-23T04:22:40.047Z,-1.18
2018-02-23T04:23:50.034Z,-1.21
2018-02-23T04:24:59.747Z,-1.31
2018-02-23T04:26:09.202Z,-1.32
2018-02-23T04:27:19.231Z,-1.29
2018-02-23T04:28:28.957Z,-1.28
2018-02-23T04:29:38.432Z,-1.31
2018-02-23T04:30:48.429Z,-1.29
2018-02-23T04:31:57.922Z,-1.33
2018-02-23T04:33:07.659Z,-1.29
2018-02-23T04:34:17.663Z,-1.32
2018-02-23T04:35:27.118Z,-1.31
2018-02-23T04:36:37.123Z,-1.28
2018-02-23T04:37:46.584Z,-1.26
2018-02-23T04:38:56.582Z,-1.33
2018-02-23T04:40:06.309Z,-1.28
2018-02-23T04:41:16.074Z,-1.31
2018-02-23T04:42:25.532Z,-1.32
2018-02-23T04:43:35.258Z,-1.21
2018-02-23T04:44:45.000Z,-1.32
2018-02-23T04:45:54.747Z,-1.32
2018-02-23T04:47:04.735Z,-1.32
2018-02-23T04:48:14.188Z,-1.29
2018-02-23T04:49:23.919Z,-1.32
2018-02-23T04:50:33.646Z,-1.28
2018-02-23T04:51:43.656Z,-1.29
2018-02-23T04:52:53.426Z,-1.35
2018-02-23T04:54:02.905Z,-1.18
2018-02-23T04:55:12.713Z,-1.36
2018-02-23T04:56:22.701Z,-1.29
2018-02-23T04:57:32.159Z,-1.28
2018-02-23T04:58:41.349Z,-1.35
2018-02-23T04:59:51.414Z,-1.29
2018-02-23T05:01:00.914Z,-1.32
2018-02-23T05:02:10.098Z,-1.35
2018-02-23T05:03:20.262Z,-1.32
2018-02-23T05:04:30.002Z,-1.31
2018-02-23T05:05:39.748Z,-1.31
2018-02-23T05:06:49.769Z,-1.38
2018-02-23T05:07:59.772Z,-1.33
2018-02-23T05:09:09.246Z,-1.38
2018-02-23T05:10:18.973Z,-1.36
2018-02-23T05:11:28.691Z,-1.38
2018-02-23T05:12:38.444Z,-1.38
2018-02-23T05:13:47.896Z,-1.41
2018-02-23T05:14:57.386Z,-1.32
2018-02-23T05:16:06.866Z,-1.35
2018-02-23T05:17:16.859Z,-1.39
2018-02-23T05:18:26.308Z,-1.44
2018-02-23T05:19:36.114Z,-1.46
2018-02-23T05:20:45.827Z,-1.41
2018-02-23T05:21:55.828Z,-1.39
2018-02-23T05:23:05.559Z,-1.49
2018-02-23T05:24:15.327Z,-1.41
2018-02-23T05:25:24.776Z,-1.39
2018-02-23T05:26:34.863Z,-1.5
2018-02-23T05:27:44.602Z,-1.47
2018-02-23T05:28:54.611Z,-1.49
2018-02-23T05:30:04.337Z,-1.41
2018-02-23T05:31:14.100Z,-1.44
2018-02-23T05:32:23.557Z,-1.49
2018-02-23T05:33:33.428Z,-1.38
2018-02-23T05:34:43.047Z,-1.36
2018-02-23T05:35:52.812Z,-1.39
2018-02-23T05:37:02.796Z,-1.38
2018-02-23T05:38:12.290Z,-1.35
2018-02-23T05:39:22.282Z,-1.33
2018-02-23T05:40:31.740Z,-1.32
2018-02-23T05:41:41.213Z,-1.28
2018-02-23T05:42:50.668Z,-1.32
2018-02-23T05:44:00.448Z,-1.26
2018-02-23T05:45:09.736Z,-1.32
2018-02-23T05:46:19.016Z,-1.32
2018-02-23T05:47:28.469Z,-1.32
2018-02-23T05:48:37.923Z,-1.32
2018-02-23T05:49:47.126Z,-1.25
2018-02-23T05:50:56.887Z,-1.39
2018-02-23T05:52:06.890Z,-1.38
2018-02-23T05:53:16.697Z,-1.32
2018-02-23T05:54:26.714Z,-1.39
2018-02-23T05:55:35.900Z,-1.35
2018-02-23T05:56:45.419Z,-1.32
2018-02-23T05:57:54.894Z,-1.39
2018-02-23T05:59:04.927Z,-1.43
2018-02-23T06:00:14.915Z,-1.44
2018-02-23T06:01:24.381Z,-1.44
2018-02-23T06:02:34.365Z,-1.41
2018-02-23T06:03:43.555Z,-1.44
2018-02-23T06:04:53.327Z,-1.33
2018-02-23T06:06:02.796Z,-1.38
2018-02-23T06:07:12.254Z,-1.39
2018-02-23T06:08:22.301Z,-1.44
2018-02-23T06:09:31.839Z,-1.39
2018-02-23T06:10:41.557Z,-1.35
2018-02-23T06:11:51.609Z,-1.38
2018-02-23T06:13:01.361Z,-1.35
2018-02-23T06:14:10.918Z,-1.31
2018-02-23T06:15:20.137Z,-1.33
2018-02-23T06:16:29.857Z,-1.26
2018-02-23T06:17:39.613Z,-1.32
2018-02-23T06:18:48.793Z,-1.29
2018-02-23T06:19:57.978Z,-1.26
2018-02-23T06:21:07.879Z,-1.32
2018-02-23T06:22:17.634Z,-1.29
2018-02-23T06:23:27.403Z,-1.35
2018-02-23T06:24:37.147Z,-1.32
2018-02-23T06:25:46.363Z,-1.17
2018-02-23T06:26:56.096Z,-1.18
2018-02-23T06:28:05.552Z,-1.32
2018-02-23T06:29:15.548Z,-1.18
2018-02-23T06:30:25.276Z,-1.31
2018-02-23T06:31:34.958Z,-1.25
2018-02-23T06:32:43.939Z,-1.18
2018-02-23T06:33:53.975Z,-1.13
2018-02-23T06:35:03.693Z,-1.25
2018-02-23T06:36:13.190Z,-1.2
2018-02-23T06:37:22.902Z,-1.23
2018-02-23T06:38:33.033Z,-1.28
2018-02-23T06:39:43.063Z,-1.08
2018-02-23T06:40:52.850Z,-1.17
2018-02-23T06:42:02.881Z,-1.1
2018-02-23T06:43:12.865Z,-0.96
2018-02-23T06:44:22.635Z,-1.02
2018-02-23T06:45:32.411Z,-0.95
2018-02-23T06:46:42.182Z,-0.95
2018-02-23T06:47:51.643Z,-0.93
2018-02-23T06:49:01.372Z,-1.07
2018-02-23T06:50:11.380Z,-0.85
2018-02-23T06:51:21.100Z,-0.96
2018-02-23T06:52:31.130Z,-0.92
2018-02-23T06:53:40.855Z,-0.9
2018-02-23T06:54:50.047Z,-0.93
2018-02-23T06:55:59.690Z,-0.92
2018-02-23T06:57:08.618Z,-0.89
2018-02-23T06:58:18.339Z,-0.8
2018-02-23T06:59:28.081Z,-0.78
2018-02-23T07:00:37.651Z,-0.81
2018-02-23T07:01:47.097Z,-0.68
2018-02-23T07:02:56.542Z,-0.74
2018-02-23T07:04:06.038Z,-0.71
2018-02-23T07:05:16.131Z,-0.71
2018-02-23T07:06:26.129Z,-0.71
2018-02-23T07:07:35.670Z,-0.77
2018-02-23T07:08:44.705Z,-0.68
2018-02-23T07:09:54.700Z,-0.71
2018-02-23T07:11:04.277Z,-0.65
2018-02-23T07:12:13.930Z,-0.67
2018-02-23T07:13:22.936Z,-0.63
2018-02-23T07:14:32.767Z,-0.59
2018-02-23T07:15:42.338Z,-0.68
2018-02-23T07:16:51.312Z,-0.5
2018-02-23T07:18:00.930Z,-0.53
2018-02-23T07:19:10.153Z,-0.45
2018-02-23T07:20:19.701Z,-0.44
2018-02-23T07:21:29.477Z,-0.39
2018-02-23T07:22:38.867Z,-0.47
2018-02-23T07:23:48.135Z,-0.42
2018-02-23T07:24:57.497Z,-0.37
2018-02-23T07:26:07.414Z,-0.41
2018-02-23T07:27:16.665Z,-0.38
2018-02-23T07:28:26.217Z,-0.42
2018-02-23T07:29:35.472Z,-0.26
2018-02-23T07:30:45.260Z,-0.37
2018-02-23T07:31:54.835Z,-0.34
2018-02-23T07:33:04.331Z,-0.24
2018-02-23T07:34:14.167Z,-0.27
2018-02-23T07:35:23.656Z,-0.2
2018-02-23T07:36:33.480Z,-0.19
2018-02-23T07:37:43.210Z,-0.3
2018-02-23T07:38:52.469Z,-0.17
2018-02-23T07:40:01.408Z,-0.19
2018-02-23T07:41:11.156Z,-0.2
2018-02-23T07:42:20.455Z,-0.17
2018-02-23T07:43:30.613Z,-0.19
2018-02-23T07:44:39.946Z,-0.17
2018-02-23T07:45:49.816Z,-0.12
2018-02-23T07:46:59.823Z,-0.17
2018-02-23T07:48:08.509Z,-0.12
2018-02-23T07:49:18.371Z,-0.13
2018-02-23T07:50:28.160Z,-0.06
2018-02-23T07:51:37.643Z,-0.06
2018-02-23T07:52:46.602Z,-0.03
2018-02-23T07:53:56.056Z,-0.02
2018-02-23T07:55:05.532Z,-0.02
2018-02-23T07:56:15.318Z,0.01
2018-02-23T07:57:25.736Z,0.02
2018-02-23T07:58:34.955Z,0.01
2018-02-23T07:59:45.044Z,0.15
2018-02-23T08:00:54.532Z,0.07
2018-02-23T08:02:04.520Z,0.15
2018-02-23T08:03:14.712Z,0.13
2018-02-23T08:04:24.466Z,0.17
2018-02-23T08:05:33.955Z,0.13
2018-02-23T08:06:42.907Z,0.08
2018-02-23T08:07:52.464Z,0.2
2018-02-23T08:09:02.001Z,0.17
2018-02-23T08:10:11.917Z,0.19
2018-02-23T08:11:21.600Z,0.31
2018-02-23T08:12:31.062Z,0.37
2018-02-23T08:13:40.788Z,0.26
2018-02-23T08:14:50.520Z,0.4
2018-02-23T08:16:00.028Z,0.38
2018-02-23T08:17:09.480Z,0.41
2018-02-23T08:18:19.206Z,0.43
2018-02-23T08:19:28.926Z,0.35
2018-02-23T08:20:38.112Z,0.45
2018-02-23T08:21:48.166Z,0.4
2018-02-23T08:22:57.448Z,0.44
2018-02-23T08:24:07.222Z,0.45
2018-02-23T08:25:16.673Z,0.59
2018-02-23T08:26:25.873Z,0.57
2018-02-23T08:27:35.855Z,0.53
2018-02-23T08:28:45.441Z,0.63
2018-02-23T08:29:54.958Z,0.53
2018-02-23T08:31:04.418Z,0.63
2018-02-23T08:32:13.885Z,0.67
2018-02-23T08:33:23.344Z,0.6
2018-02-23T08:34:33.185Z,0.71
2018-02-23T08:35:42.648Z,0.64
2018-02-23T08:36:51.885Z,0.72
2018-02-23T08:38:00.810Z,0.72
2018-02-23T08:39:09.998Z,0.68
2018-02-23T08:40:19.457Z,0.71
2018-02-23T08:41:28.933Z,0.72
2018-02-23T08:42:38.129Z,0.81
2018-02-23T08:43:48.257Z,0.84
2018-02-23T08:44:57.771Z,0.86
2018-02-23T08:46:07.076Z,0.89
2018-02-23T08:47:16.557Z,0.84
2018-02-23T08:48:25.967Z,0.84
2018-02-23T08:49:35.993Z,0.93
2018-02-23T08:50:45.611Z,0.99
2018-02-23T08:51:55.181Z,0.84
2018-02-23T08:53:04.372Z,0.9
2018-02-23T08:54:13.823Z,0.95
2018-02-23T08:55:23.314Z,0.98
2018-02-23T08:56:33.050Z,0.95
2018-02-23T08:57:42.830Z,0.95
2018-02-23T08:58:51.777Z,0.92
2018-02-23T09:00:01.768Z,0.99
2018-02-23T09:01:11.313Z,0.98
2018-02-23T09:02:20.973Z,0.98
2018-02-23T09:03:30.754Z,0.92
2018-02-23T09:04:40.483Z,0.99
2018-02-23T09:05:50.090Z,1.04
2018-02-23T09:06:59.992Z,1
2018-02-23T09:08:09.813Z,1.07
2018-02-23T09:09:19.366Z,1.04
2018-02-23T09:10:29.199Z,1.08
2018-02-23T09:11:38.602Z,1.1
2018-02-23T09:12:48.670Z,1.1
2018-02-23T09:13:58.620Z,1.1
2018-02-23T09:15:08.164Z,1.11
2018-02-23T09:16:17.703Z,1.11
2018-02-23T09:17:27.039Z,1.04
2018-02-23T09:18:36.233Z,1.17
2018-02-23T09:19:45.938Z,1.17
2018-02-23T09:20:55.489Z,1.17
2018-02-23T09:22:05.479Z,1.2
2018-02-23T09:23:15.766Z,1.25
2018-02-23T09:24:26.371Z,1.28
2018-02-23T09:25:35.835Z,1.31
2018-02-23T09:26:45.552Z,1.32
2018-02-23T09:27:55.419Z,1.29
2018-02-23T09:29:05.555Z,1.44
2018-02-23T09:30:15.009Z,1.44
2018-02-23T09:31:24.353Z,1.46
2018-02-23T09:32:33.860Z,1.5
2018-02-23T09:33:43.593Z,1.46
2018-02-23T09:34:53.351Z,1.47
2018-02-23T09:36:03.342Z,1.49
2018-02-23T09:37:13.067Z,1.5
2018-02-23T09:38:22.789Z,1.67
2018-02-23T09:39:32.780Z,1.7
2018-02-23T09:40:42.526Z,1.68
2018-02-23T09:41:52.253Z,1.72
2018-02-23T09:43:01.981Z,1.77
2018-02-23T09:44:11.510Z,1.88
2018-02-23T09:45:20.964Z,1.81
2018-02-23T09:46:30.741Z,1.85
2018-02-23T09:47:40.120Z,1.72
2018-02-23T09:48:49.437Z,1.88
2018-02-23T09:49:58.948Z,1.85
2018-02-23T09:51:08.148Z,1.85
2018-02-23T09:52:17.339Z,1.85
2018-02-23T09:53:27.354Z,1.92
2018-02-23T09:54:36.548Z,1.9
2018-02-23T09:55:45.735Z,1.9
2018-02-23T09:56:55.459Z,2.04
2018-02-23T09:58:04.383Z,2.01
2018-02-23T09:59:14.112Z,2.01
2018-02-23T10:00:24.096Z,2.02
2018-02-23T10:01:33.855Z,2.19
2018-02-23T10:02:43.406Z,2.14
2018-02-23T10:03:53.153Z,2.18
2018-02-23T10:05:02.503Z,2.25
2018-02-23T10:06:11.558Z,2.19
2018-02-23T10:07:21.288Z,2.25
2018-02-23T10:08:31.057Z,2.33
2018-02-23T10:09:40.790Z,2.29
2018-02-23T10:10:50.425Z,2.3
2018-02-23T10:11:59.693Z,2.37
2018-02-23T10:13:08.882Z,2.33
2018-02-23T10:14:18.154Z,2.48
2018-02-23T10:15:27.616Z,2.5
2018-02-23T10:16:37.634Z,2.47
2018-02-23T10:17:47.455Z,2.55
2018-02-23T10:18:57.125Z,2.53
2018-02-23T10:20:06.323Z,2.59
2018-02-23T10:21:15.651Z,2.56
2018-02-23T10:22:25.189Z,2.55
2018-02-23T10:23:35.166Z,2.61
2018-02-23T10:24:44.714Z,2.58
2018-02-23T10:25:54.200Z,2.68
2018-02-23T10:27:03.766Z,2.73
2018-02-23T10:28:13.298Z,2.76
2018-02-23T10:29:23.041Z,2.69
2018-02-23T10:30:32.804Z,2.71
2018-02-23T10:31:42.270Z,2.8
2018-02-23T10:32:51.961Z,2.9
2018-02-23T10:34:01.459Z,2.99
2018-02-23T10:35:11.230Z,2.98
2018-02-23T10:36:21.218Z,3.02
2018-02-23T10:37:30.709Z,3.02
2018-02-23T10:38:40.219Z,3.1
2018-02-23T10:39:50.058Z,3.05
2018-02-23T10:40:59.784Z,3.12
2018-02-23T10:42:09.527Z,3.19
2018-02-23T10:43:18.978Z,3.19
2018-02-23T10:44:28.698Z,3.22
2018-02-23T10:45:38.713Z,3.23
2018-02-23T10:46:48.726Z,3.28
2018-02-23T10:47:58.236Z,3.3
2018-02-23T10:49:07.965Z,3.26
2018-02-23T10:50:17.160Z,3.28
2018-02-23T10:51:26.919Z,3.31
2018-02-23T10:52:36.409Z,3.26
2018-02-23T10:53:45.870Z,3.22
2018-02-23T10:54:54.796Z,3.37
2018-02-23T10:56:04.327Z,3.37
2018-02-23T10:57:13.609Z,3.35
2018-02-23T10:58:23.604Z,3.37
2018-02-23T10:59:33.349Z,3.45
2018-02-23T11:00:43.263Z,3.42
2018-02-23T11:01:52.808Z,3.45
2018-02-23T11:03:02.553Z,3.41
2018-02-23T11:04:12.304Z,3.44
2018-02-23T11:05:22.041Z,3.44
2018-02-23T11:06:32.108Z,3.46
2018-02-23T11:07:41.600Z,3.42
2018-02-23T11:08:50.879Z,3.59
2018-02-23T11:10:00.655Z,3.57
2018-02-23T11:11:10.237Z,3.64
2018-02-23T11:12:19.423Z,3.71
2018-02-23T11:13:28.978Z,3.72
2018-02-23T11:14:38.474Z,3.77
2018-02-23T11:15:48.293Z,3.89
2018-02-23T11:16:58.018Z,3.96
2018-02-23T11:18:08.098Z,3.96
2018-02-23T11:19:17.884Z,4
2018-02-23T11:20:27.914Z,4.11
2018-02-23T11:21:37.959Z,4.1
2018-02-23T11:22:48.077Z,4.26
2018-02-23T11:23:57.570Z,4.24
2018-02-23T11:25:07.029Z,4.35
2018-02-23T11:26:16.532Z,4.17
2018-02-23T11:27:26.280Z,4.31
2018-02-23T11:28:35.955Z,4.25
2018-02-23T11:29:45.170Z,4.32
2018-02-23T11:30:54.892Z,4.25
2018-02-23T11:32:04.349Z,4.28
2018-02-23T11:33:14.117Z,4.24
2018-02-23T11:34:24.178Z,4.34
2018-02-23T11:35:33.915Z,4.44
2018-02-23T11:36:43.666Z,4.49
2018-02-23T11:37:53.418Z,4.51
2018-02-23T11:39:02.903Z,4.42
2018-02-23T11:40:12.440Z,4.39
2018-02-23T11:41:21.375Z,4.47
2018-02-23T11:42:31.134Z,4.46
2018-02-23T11:43:41.196Z,4.46
2018-02-23T11:44:51.062Z,4.44
2018-02-23T11:46:00.819Z,4.51
2018-02-23T11:47:10.963Z,4.51
2018-02-23T11:48:20.744Z,4.54
2018-02-23T11:49:30.525Z,4.61
2018-02-23T11:50:40.262Z,4.59
2018-02-23T11:51:49.805Z,4.57
2018-02-23T11:52:59.287Z,4.53
2018-02-23T11:54:09.070Z,4.61
2018-02-23T11:55:18.528Z,4.67
2018-02-23T11:56:27.986Z,4.62
2018-02-23T11:57:37.797Z,4.67
2018-02-23T11:58:47.029Z,4.68
2018-02-23T11:59:56.766Z,4.65
2018-02-23T12:01:05.692Z,4.57
2018-02-23T12:02:15.412Z,4.61
2018-02-23T12:03:25.460Z,4.59
2018-02-23T12:04:34.981Z,4.67
2018-02-23T12:05:44.760Z,4.64
2018-02-23T12:06:54.527Z,4.69
2018-02-23T12:08:03.997Z,4.77
2018-02-23T12:09:14.021Z,4.75
2018-02-23T12:10:23.761Z,4.71
2018-02-23T12:11:33.257Z,4.65
2018-02-23T12:12:42.712Z,4.68
2018-02-23T12:13:52.719Z,4.62
2018-02-23T12:15:01.963Z,4.74
2018-02-23T12:16:11.631Z,4.79
2018-02-23T12:17:21.361Z,4.75
2018-02-23T12:18:30.655Z,4.79
2018-02-23T12:19:39.898Z,4.8
2018-02-23T12:20:49.365Z,4.88
2018-02-23T12:21:58.857Z,4.91
2018-02-23T12:23:08.584Z,5.01
2018-02-23T12:24:17.520Z,5.06
2018-02-23T12:25:27.519Z,5.14
2018-02-23T12:26:37.604Z,5.15
2018-02-23T12:27:47.906Z,5.24
2018-02-23T12:28:57.400Z,5.23
2018-02-23T12:30:07.125Z,5.12
2018-02-23T12:31:16.881Z,5.11
2018-02-23T12:32:26.154Z,5.12
2018-02-23T12:33:35.649Z,5.17
2018-02-23T12:34:45.683Z,5.14
2018-02-23T12:35:55.180Z,5.11
2018-02-23T12:37:05.195Z,5.22
2018-02-23T12:38:14.384Z,5.29
2018-02-23T12:39:23.874Z,5.26
2018-02-23T12:40:33.674Z,5.23
2018-02-23T12:41:43.260Z,5.27
2018-02-23T12:42:52.994Z,5.33
2018-02-23T12:44:02.478Z,5.45
2018-02-23T12:45:12.509Z,5.32
2018-02-23T12:46:22.302Z,5.3
2018-02-23T12:47:32.027Z,5.35
2018-02-23T12:48:42.249Z,5.38
2018-02-23T12:49:51.539Z,5.49
2018-02-23T12:51:01.009Z,5.56
2018-02-23T12:52:10.306Z,5.49
2018-02-23T12:53:19.488Z,5.58
2018-02-23T12:54:29.216Z,5.69
2018-02-23T12:55:38.703Z,5.7
2018-02-23T12:56:48.187Z,5.73
2018-02-23T12:57:57.912Z,5.75
2018-02-23T12:59:07.459Z,5.92
2018-02-23T13:00:16.987Z,5.81
2018-02-23T13:01:26.452Z,5.88
2018-02-23T13:02:36.186Z,5.85
2018-02-23T13:03:45.944Z,5.83
2018-02-23T13:04:55.865Z,5.85
2018-02-23T13:06:05.598Z,5.99
2018-02-23T13:07:15.375Z,6.02
2018-02-23T13:08:24.833Z,6.01
2018-02-23T13:09:34.403Z,6.01
2018-02-23T13:10:43.884Z,5.99
2018-02-23T13:11:53.660Z,6.01
2018-02-23T13:13:03.505Z,6.13
2018-02-23T13:14:13.496Z,6.14
2018-02-23T13:15:22.987Z,6.05
2018-02-23T13:16:33.085Z,6.05
2018-02-23T13:17:42.829Z,6.01
2018-02-23T13:18:52.362Z,5.98
2018-02-23T13:20:02.467Z,6.11
2018-02-23T13:21:12.244Z,6.03
2018-02-23T13:22:21.703Z,6.16
2018-02-23T13:23:31.187Z,6.13
2018-02-23T13:24:40.179Z,6.05
2018-02-23T13:25:49.915Z,6.14
2018-02-23T13:26:59.735Z,6.14
2018-02-23T13:28:08.694Z,6.2
2018-02-23T13:29:17.914Z,6.21
2018-02-23T13:30:27.375Z,6.33
2018-02-23T13:31:37.143Z,6.38
2018-02-23T13:32:46.535Z,6.35
2018-02-23T13:33:55.783Z,6.3
2018-02-23T13:35:04.973Z,6.32
2018-02-23T13:36:14.452Z,6.42
2018-02-23T13:37:24.463Z,6.45
2018-02-23T13:38:33.964Z,6.54
2018-02-23T13:39:44.013Z,6.46
2018-02-23T13:40:53.707Z,6.6
2018-02-23T13:42:03.436Z,6.55
2018-02-23T13:43:13.159Z,6.65
2018-02-23T13:44:22.973Z,6.65
2018-02-23T13:45:32.747Z,6.61
2018-02-23T13:46:42.811Z,6.58
2018-02-23T13:47:52.009Z,6.57
2018-02-23T13:49:01.826Z,6.54
2018-02-23T13:50:11.843Z,6.43
2018-02-23T13:51:21.620Z,6.5
2018-02-23T13:52:30.655Z,6.58
2018-02-23T13:53:40.656Z,6.57
2018-02-23T13:54:50.695Z,6.6
2018-02-23T13:56:00.169Z,6.63
2018-02-23T13:57:09.669Z,6.71
2018-02-23T13:58:19.667Z,6.83
2018-02-23T13:59:29.659Z,6.75
2018-02-23T14:00:39.478Z,6.81
2018-02-23T14:01:48.966Z,6.75
2018-02-23T14:02:58.724Z,6.79
2018-02-23T14:04:08.483Z,6.82
2018-02-23T14:05:18.238Z,6.78
2018-02-23T14:06:27.749Z,6.73
2018-02-23T14:07:37.748Z,6.79
2018-02-23T14:08:46.965Z,6.78
2018-02-23T14:09:56.695Z,6.76
2018-02-23T14:11:06.751Z,6.91
2018-02-23T14:12:15.948Z,6.79
2018-02-23T14:13:25.509Z,6.89
2018-02-23T14:14:35.284Z,6.89
2018-02-23T14:15:44.913Z,6.9
2018-02-23T14:16:54.904Z,6.79
2018-02-23T14:18:04.375Z,6.86
2018-02-23T14:19:14.308Z,6.82
2018-02-23T14:20:24.421Z,6.91
2018-02-23T14:21:34.156Z,6.93
2018-02-23T14:22:43.912Z,6.89
2018-02-23T14:23:53.652Z,6.94
2018-02-23T14:25:03.116Z,6.91
2018-02-23T14:26:12.339Z,6.86
2018-02-23T14:27:22.100Z,6.73
2018-02-23T14:28:31.320Z,6.76
2018-02-23T14:29:40.861Z,6.91
2018-02-23T14:30:50.062Z,6.93
2018-02-23T14:31:59.572Z,7.04
2018-02-23T14:33:09.583Z,7
2018-02-23T14:34:19.327Z,7.07
2018-02-23T14:35:28.836Z,7.07
2018-02-23T14:36:38.590Z,7.04
2018-02-23T14:37:48.334Z,7.05
2018-02-23T14:38:57.530Z,7.08
2018-02-23T14:40:07.303Z,7
2018-02-23T14:41:17.023Z,7
2018-02-23T14:42:27.026Z,6.96
2018-02-23T14:43:36.223Z,6.91
2018-02-23T14:44:45.979Z,6.86
2018-02-23T14:45:56.016Z,6.76
2018-02-23T14:47:05.229Z,6.75
2018-02-23T14:48:15.012Z,6.9
2018-02-23T14:49:24.510Z,6.9
2018-02-23T14:50:34.036Z,6.91
2018-02-23T14:51:43.501Z,6.86
2018-02-23T14:52:52.973Z,7
2018-02-23T14:54:02.160Z,6.97
2018-02-23T14:55:11.656Z,7.07
2018-02-23T14:56:21.129Z,7.04
2018-02-23T14:57:30.974Z,7.14
2018-02-23T14:58:40.439Z,7.24
2018-02-23T14:59:50.201Z,7.34
2018-02-23T15:00:59.713Z,7.26
2018-02-23T15:02:09.728Z,7.26
2018-02-23T15:03:19.457Z,7.24
2018-02-23T15:04:28.950Z,7.18
2018-02-23T15:05:38.423Z,7.11
2018-02-23T15:06:47.885Z,7.15
2018-02-23T15:07:57.082Z,7.16
2018-02-23T15:09:06.829Z,7.15
2018-02-23T15:10:16.611Z,7.15
2018-02-23T15:11:26.620Z,6.97
2018-02-23T15:12:36.101Z,6.94
2018-02-23T15:13:45.563Z,6.9